Warning: Javascript must be enabled to use all the features on this page!


Page Loading - Please Wait...

Click to hideNews Bulletins

Peak Streamflow for the Nation

USGS 11481500 REDWOOD C NR BLUE LAKE CA

Humboldt County, California
Hydrologic Unit Code 18010102
Latitude  40°54'22", Longitude 123°48'51" NAD27
Drainage area 67.7  square miles
Gage datum 867.26 feet above NAVD88
Output formats
Table
Graph
Tab-separated file
peakfq (watstore) format
Reselect output format
Water
Year
Date Gage
Height
(feet)
Stream-
flow
(cfs)
1954 1953-11-23 11.35 8,310
1955 1954-12-31 11.64 9,200
1956 1955-12-21 13.68 12,100
1957 1957-03-11 9.28 5,890
1958 1957-11-13 10.78 7,960
1973 1973-01-16 9.35 2,980
1974 1974-04-01 10.20 5,720
1975 1975-03-18 13.70 12,200
1976 1976-02-27 8.73 4,100
1977 1977-03-09 5.59 827
1978 1977-12-14 8.29 3,490
1979 1979-01-11 9.17 4,760
1980 1979-11-24 9.22 4,840
1981 1980-12-02 8.12 3,410
1982 1981-12-19 9.72 5,730
1983 1983-01-26 10.31 6,750
1984 1983-12-06 7.98 3,950
1985 1984-11-12 8.60 4,390
1986 1986-02-17 10.16 6,470
1987 1987-02-02 5.84 2,020
1988 1987-12-10 8.03 3,900
1989 1988-11-22 9.66 5,980
1990 1990-01-08 9.66 5,980
1991 1991-03-04 4.83 1,430
1992 1992-04-16 4.74 1,370
1993 1993-01-20 9.15 5,340
1998 1998-01-17 10.43 7,000
1999 1998-11-21 8.40 4,470
2000 2000-02-14 8.33 4,390
2001 2001-03-04 4.24 1,020
2002 2001-12-06 9.06 5,200
2003 2002-12-28 9.91 6,300
2004 2003-12-13 8.37 4,440
2005 2004-12-08 9.95 6,350
2006 2005-12-30 12.15 9,550
2007 2006-12-13 7.03 3,030
2008 2008-01-04 8.84 4,970
2009 2008-12-28 6.74 2,600
2010 2010-02-26 7.48 3,340
2011 2010-12-29 9.37 5,440
2012 2012-03-30 7.37 3,370
2013 2012-12-02 10.10 6,420
2014 2014-03-10 6.33 2,320
2015 2014-12-20 7.63 3,480
2016 2016-01-17 10.42 6,680
2017 2017-01-10 8.13 3,990
2018 2018-04-07 6.81 2,680
2019 2019-02-27 9.31 5,410
2020 2020-01-26 7.10 3,060